sensor_id;sensor_type;location;lat;lon;timestamp;P1;durP1;ratioP1;P2;durP2;ratioP2
26530;SDS011;14201;43.188;24.160;2023-03-01T00:01:25;13.73;;;10.77;;
26530;SDS011;14201;43.188;24.160;2023-03-01T00:03:53;14.15;;;10.75;;
26530;SDS011;14201;43.188;24.160;2023-03-01T00:08:45;14.35;;;10.95;;
26530;SDS011;14201;43.188;24.160;2023-03-01T00:13:43;13.93;;;10.82;;
26530;SDS011;14201;43.188;24.160;2023-03-01T00:16:14;14.40;;;11.05;;
26530;SDS011;14201;43.188;24.160;2023-03-01T00:18:42;14.45;;;10.55;;
26530;SDS011;14201;43.188;24.160;2023-03-01T00:21:07;14.68;;;10.50;;
26530;SDS011;14201;43.188;24.160;2023-03-01T00:23:33;14.02;;;10.18;;
26530;SDS011;14201;43.188;24.160;2023-03-01T00:25:59;14.55;;;11.00;;
26530;SDS011;14201;43.188;24.160;2023-03-01T00:28:25;16.33;;;11.85;;
26530;SDS011;14201;43.188;24.160;2023-03-01T00:30:51;14.88;;;11.82;;
26530;SDS011;14201;43.188;24.160;2023-03-01T00:33:16;12.93;;;9.98;;
26530;SDS011;14201;43.188;24.160;2023-03-01T00:35:43;13.55;;;9.63;;
26530;SDS011;14201;43.188;24.160;2023-03-01T00:38:09;12.43;;;9.98;;
26530;SDS011;14201;43.188;24.160;2023-03-01T00:40:35;14.43;;;10.50;;
26530;SDS011;14201;43.188;24.160;2023-03-01T00:43:02;13.25;;;9.98;;
26530;SDS011;14201;43.188;24.160;2023-03-01T00:45:29;13.00;;;9.65;;
26530;SDS011;14201;43.188;24.160;2023-03-01T00:47:56;15.25;;;10.48;;
26530;SDS011;14201;43.188;24.160;2023-03-01T00:50:22;14.43;;;10.68;;
26530;SDS011;14201;43.188;24.160;2023-03-01T00:52:52;14.63;;;11.10;;
26530;SDS011;14201;43.188;24.160;2023-03-01T00:55:18;14.40;;;10.47;;
26530;SDS011;14201;43.188;24.160;2023-03-01T00:57:44;16.17;;;10.38;;
26530;SDS011;14201;43.188;24.160;2023-03-01T01:00:10;15.55;;;10.88;;
26530;SDS011;14201;43.188;24.160;2023-03-01T01:02:36;14.85;;;11.27;;
26530;SDS011;14201;43.188;24.160;2023-03-01T01:24:28;14.05;;;10.35;;
26530;SDS011;14201;43.188;24.160;2023-03-01T01:26:54;15.88;;;10.65;;
26530;SDS011;14201;43.188;24.160;2023-03-01T01:29:20;16.23;;;12.23;;
26530;SDS011;14201;43.188;24.160;2023-03-01T01:31:46;17.30;;;11.85;;
26530;SDS011;14201;43.188;24.160;2023-03-01T01:34:16;16.55;;;11.90;;
26530;SDS011;14201;43.188;24.160;2023-03-01T01:36:43;16.25;;;11.95;;
26530;SDS011;14201;43.188;24.160;2023-03-01T01:39:09;19.48;;;12.23;;
26530;SDS011;14201;43.188;24.160;2023-03-01T01:41:39;16.52;;;12.02;;
26530;SDS011;14201;43.188;24.160;2023-03-01T01:46:38;17.25;;;11.77;;
26530;SDS011;14201;43.188;24.160;2023-03-01T01:49:47;16.33;;;11.80;;
26530;SDS011;14201;43.188;24.160;2023-03-01T01:52:23;18.27;;;12.43;;
26530;SDS011;14201;43.188;24.160;2023-03-01T01:57:34;17.45;;;12.63;;
26530;SDS011;14201;43.188;24.160;2023-03-01T02:00:08;17.25;;;12.48;;
26530;SDS011;14201;43.188;24.160;2023-03-01T02:02:36;17.60;;;12.48;;
26530;SDS011;14201;43.188;24.160;2023-03-01T02:05:25;18.80;;;13.20;;
26530;SDS011;14201;43.188;24.160;2023-03-01T02:07:51;19.60;;;12.45;;
26530;SDS011;14201;43.188;24.160;2023-03-01T02:15:09;19.30;;;13.55;;
26530;SDS011;14201;43.188;24.160;2023-03-01T02:17:35;19.42;;;13.57;;
26530;SDS011;14201;43.188;24.160;2023-03-01T02:22:32;20.83;;;14.02;;
26530;SDS011;14201;43.188;24.160;2023-03-01T02:27:26;20.02;;;14.10;;
26530;SDS011;14201;43.188;24.160;2023-03-01T02:30:11;21.92;;;14.80;;
26530;SDS011;14201;43.188;24.160;2023-03-01T02:32:40;21.75;;;14.73;;
26530;SDS011;14201;43.188;24.160;2023-03-01T02:35:10;22.42;;;15.15;;
26530;SDS011;14201;43.188;24.160;2023-03-01T02:37:39;24.40;;;16.00;;
26530;SDS011;14201;43.188;24.160;2023-03-01T02:40:08;25.00;;;16.38;;
26530;SDS011;14201;43.188;24.160;2023-03-01T02:42:45;20.42;;;14.52;;
26530;SDS011;14201;43.188;24.160;2023-03-01T02:45:15;19.80;;;13.95;;
26530;SDS011;14201;43.188;24.160;2023-03-01T02:47:41;22.30;;;14.30;;
26530;SDS011;14201;43.188;24.160;2023-03-01T02:50:34;19.23;;;14.23;;
26530;SDS011;14201;43.188;24.160;2023-03-01T02:53:23;21.58;;;14.77;;
26530;SDS011;14201;43.188;24.160;2023-03-01T03:00:52;19.05;;;13.68;;
26530;SDS011;14201;43.188;24.160;2023-03-01T03:03:17;20.73;;;13.82;;
26530;SDS011;14201;43.188;24.160;2023-03-01T03:05:45;19.45;;;13.45;;
26530;SDS011;14201;43.188;24.160;2023-03-01T03:40:21;16.92;;;11.93;;
26530;SDS011;14201;43.188;24.160;2023-03-01T03:42:47;16.50;;;11.48;;
26530;SDS011;14201;43.188;24.160;2023-03-01T03:45:31;16.63;;;11.43;;
26530;SDS011;14201;43.188;24.160;2023-03-01T03:48:13;15.00;;;10.50;;
26530;SDS011;14201;43.188;24.160;2023-03-01T03:50:39;17.25;;;11.35;;
26530;SDS011;14201;43.188;24.160;2023-03-01T03:53:07;15.13;;;10.45;;
26530;SDS011;14201;43.188;24.160;2023-03-01T03:55:37;14.15;;;10.32;;
26530;SDS011;14201;43.188;24.160;2023-03-01T03:58:07;13.05;;;8.77;;
26530;SDS011;14201;43.188;24.160;2023-03-01T04:00:35;17.85;;;11.57;;
26530;SDS011;14201;43.188;24.160;2023-03-01T04:03:03;16.65;;;11.98;;
26530;SDS011;14201;43.188;24.160;2023-03-01T04:05:29;19.17;;;12.13;;
26530;SDS011;14201;43.188;24.160;2023-03-01T04:07:55;19.73;;;12.50;;
26530;SDS011;14201;43.188;24.160;2023-03-01T04:10:33;16.23;;;11.65;;
26530;SDS011;14201;43.188;24.160;2023-03-01T04:13:06;14.68;;;11.23;;
26530;SDS011;14201;43.188;24.160;2023-03-01T04:15:34;17.27;;;11.70;;
26530;SDS011;14201;43.188;24.160;2023-03-01T04:18:00;15.65;;;11.32;;
26530;SDS011;14201;43.188;24.160;2023-03-01T04:20:27;16.20;;;10.63;;
26530;SDS011;14201;43.188;24.160;2023-03-01T04:23:04;14.60;;;10.27;;
26530;SDS011;14201;43.188;24.160;2023-03-01T04:25:44;15.00;;;10.02;;
26530;SDS011;14201;43.188;24.160;2023-03-01T04:28:18;16.00;;;11.52;;
26530;SDS011;14201;43.188;24.160;2023-03-01T04:31:06;14.27;;;10.43;;
26530;SDS011;14201;43.188;24.160;2023-03-01T04:33:41;16.17;;;10.73;;
26530;SDS011;14201;43.188;24.160;2023-03-01T04:36:11;17.15;;;11.15;;
26530;SDS011;14201;43.188;24.160;2023-03-01T04:38:38;12.52;;;9.82;;
26530;SDS011;14201;43.188;24.160;2023-03-01T04:41:05;12.20;;;9.30;;
26530;SDS011;14201;43.188;24.160;2023-03-01T04:43:33;13.07;;;8.77;;
26530;SDS011;14201;43.188;24.160;2023-03-01T04:46:01;11.48;;;9.02;;
26530;SDS011;14201;43.188;24.160;2023-03-01T04:48:28;11.90;;;8.25;;
26530;SDS011;14201;43.188;24.160;2023-03-01T05:37:06;10.18;;;7.75;;
26530;SDS011;14201;43.188;24.160;2023-03-01T05:39:32;12.70;;;7.85;;
26530;SDS011;14201;43.188;24.160;2023-03-01T05:42:00;9.63;;;7.47;;
26530;SDS011;14201;43.188;24.160;2023-03-01T05:44:27;10.77;;;7.63;;
26530;SDS011;14201;43.188;24.160;2023-03-01T05:46:53;13.15;;;7.45;;
26530;SDS011;14201;43.188;24.160;2023-03-01T05:49:20;9.15;;;6.88;;
26530;SDS011;14201;43.188;24.160;2023-03-01T05:51:50;9.77;;;7.35;;
26530;SDS011;14201;43.188;24.160;2023-03-01T05:54:17;7.63;;;6.63;;
26530;SDS011;14201;43.188;24.160;2023-03-01T05:56:43;8.55;;;7.05;;
26530;SDS011;14201;43.188;24.160;2023-03-01T05:59:09;8.45;;;6.53;;
26530;SDS011;14201;43.188;24.160;2023-03-01T06:01:35;8.63;;;6.90;;
26530;SDS011;14201;43.188;24.160;2023-03-01T06:04:02;7.72;;;6.35;;
26530;SDS011;14201;43.188;24.160;2023-03-01T06:06:27;8.20;;;6.60;;
26530;SDS011;14201;43.188;24.160;2023-03-01T06:08:53;7.38;;;6.05;;
26530;SDS011;14201;43.188;24.160;2023-03-01T06:11:19;8.07;;;6.03;;
26530;SDS011;14201;43.188;24.160;2023-03-01T06:13:45;8.05;;;6.38;;
26530;SDS011;14201;43.188;24.160;2023-03-01T06:16:12;7.78;;;6.10;;
26530;SDS011;14201;43.188;24.160;2023-03-01T06:18:38;8.18;;;5.93;;
26530;SDS011;14201;43.188;24.160;2023-03-01T06:21:05;6.85;;;5.78;;
26530;SDS011;14201;43.188;24.160;2023-03-01T06:23:31;7.88;;;6.05;;
26530;SDS011;14201;43.188;24.160;2023-03-01T06:25:57;9.00;;;6.47;;
26530;SDS011;14201;43.188;24.160;2023-03-01T06:28:23;6.88;;;6.07;;
26530;SDS011;14201;43.188;24.160;2023-03-01T06:30:49;7.60;;;6.18;;
26530;SDS011;14201;43.188;24.160;2023-03-01T06:33:16;9.23;;;6.50;;
26530;SDS011;14201;43.188;24.160;2023-03-01T06:35:45;8.05;;;5.85;;
26530;SDS011;14201;43.188;24.160;2023-03-01T06:38:11;9.00;;;5.78;;
26530;SDS011;14201;43.188;24.160;2023-03-01T06:40:40;7.60;;;5.93;;
26530;SDS011;14201;43.188;24.160;2023-03-01T06:43:06;6.68;;;5.47;;
26530;SDS011;14201;43.188;24.160;2023-03-01T06:45:32;8.00;;;6.25;;
26530;SDS011;14201;43.188;24.160;2023-03-01T06:48:02;9.00;;;6.50;;
26530;SDS011;14201;43.188;24.160;2023-03-01T06:57:48;6.97;;;5.68;;
26530;SDS011;14201;43.188;24.160;2023-03-01T07:00:14;6.43;;;5.40;;
26530;SDS011;14201;43.188;24.160;2023-03-01T07:02:40;5.68;;;4.88;;
26530;SDS011;14201;43.188;24.160;2023-03-01T07:05:05;6.15;;;4.65;;
26530;SDS011;14201;43.188;24.160;2023-03-01T07:07:31;5.72;;;4.57;;
26530;SDS011;14201;43.188;24.160;2023-03-01T07:09:57;6.28;;;4.65;;
26530;SDS011;14201;43.188;24.160;2023-03-01T07:12:23;7.00;;;5.22;;
26530;SDS011;14201;43.188;24.160;2023-03-01T07:14:48;6.47;;;5.10;;
26530;SDS011;14201;43.188;24.160;2023-03-01T07:17:14;7.18;;;5.38;;
26530;SDS011;14201;43.188;24.160;2023-03-01T07:19:39;6.35;;;5.00;;
26530;SDS011;14201;43.188;24.160;2023-03-01T07:22:05;7.75;;;5.32;;
26530;SDS011;14201;43.188;24.160;2023-03-01T07:24:33;6.88;;;5.63;;
26530;SDS011;14201;43.188;24.160;2023-03-01T07:26:59;7.97;;;6.68;;
26530;SDS011;14201;43.188;24.160;2023-03-01T07:29:24;11.15;;;8.43;;
26530;SDS011;14201;43.188;24.160;2023-03-01T07:31:50;11.90;;;9.40;;
26530;SDS011;14201;43.188;24.160;2023-03-01T07:34:15;12.52;;;9.15;;
26530;SDS011;14201;43.188;24.160;2023-03-01T07:36:41;16.33;;;11.38;;
26530;SDS011;14201;43.188;24.160;2023-03-01T08:13:10;7.90;;;6.50;;
26530;SDS011;14201;43.188;24.160;2023-03-01T08:15:36;7.75;;;6.57;;
26530;SDS011;14201;43.188;24.160;2023-03-01T08:18:01;7.35;;;6.07;;
26530;SDS011;14201;43.188;24.160;2023-03-01T08:20:27;7.60;;;6.22;;
26530;SDS011;14201;43.188;24.160;2023-03-01T08:22:52;5.18;;;4.50;;
26530;SDS011;14201;43.188;24.160;2023-03-01T08:25:18;6.50;;;5.30;;
26530;SDS011;14201;43.188;24.160;2023-03-01T08:27:44;7.55;;;5.80;;
26530;SDS011;14201;43.188;24.160;2023-03-01T08:30:11;8.10;;;6.32;;
26530;SDS011;14201;43.188;24.160;2023-03-01T08:32:37;5.85;;;4.60;;
26530;SDS011;14201;43.188;24.160;2023-03-01T08:35:04;7.00;;;5.18;;
26530;SDS011;14201;43.188;24.160;2023-03-01T08:37:30;8.80;;;5.85;;
26530;SDS011;14201;43.188;24.160;2023-03-01T08:39:58;7.13;;;5.70;;
26530;SDS011;14201;43.188;24.160;2023-03-01T08:42:25;6.78;;;5.75;;
26530;SDS011;14201;43.188;24.160;2023-03-01T08:44:51;6.90;;;6.03;;
26530;SDS011;14201;43.188;24.160;2023-03-01T08:47:17;6.88;;;5.55;;
26530;SDS011;14201;43.188;24.160;2023-03-01T08:49:42;6.45;;;5.53;;
26530;SDS011;14201;43.188;24.160;2023-03-01T08:52:08;6.35;;;5.07;;
26530;SDS011;14201;43.188;24.160;2023-03-01T08:54:34;8.32;;;5.40;;
26530;SDS011;14201;43.188;24.160;2023-03-01T08:57:01;6.38;;;5.40;;
26530;SDS011;14201;43.188;24.160;2023-03-01T08:59:27;6.45;;;5.32;;
26530;SDS011;14201;43.188;24.160;2023-03-01T09:01:54;7.32;;;5.80;;
26530;SDS011;14201;43.188;24.160;2023-03-01T09:04:20;6.95;;;5.78;;
26530;SDS011;14201;43.188;24.160;2023-03-01T09:06:46;8.48;;;5.93;;
26530;SDS011;14201;43.188;24.160;2023-03-01T09:09:15;7.82;;;6.07;;
26530;SDS011;14201;43.188;24.160;2023-03-01T09:11:43;7.60;;;6.20;;
26530;SDS011;14201;43.188;24.160;2023-03-01T09:14:11;9.80;;;6.20;;
26530;SDS011;14201;43.188;24.160;2023-03-01T09:16:39;7.78;;;6.35;;
26530;SDS011;14201;43.188;24.160;2023-03-01T09:19:05;8.52;;;6.70;;
26530;SDS011;14201;43.188;24.160;2023-03-01T09:21:31;9.95;;;7.68;;
26530;SDS011;14201;43.188;24.160;2023-03-01T09:23:56;10.93;;;7.75;;
26530;SDS011;14201;43.188;24.160;2023-03-01T09:26:23;9.23;;;7.40;;
26530;SDS011;14201;43.188;24.160;2023-03-01T09:28:50;8.07;;;6.68;;
26530;SDS011;14201;43.188;24.160;2023-03-01T09:31:19;9.73;;;7.97;;
26530;SDS011;14201;43.188;24.160;2023-03-01T09:33:47;9.38;;;7.28;;
26530;SDS011;14201;43.188;24.160;2023-03-01T09:36:15;6.35;;;5.22;;
26530;SDS011;14201;43.188;24.160;2023-03-01T09:38:43;7.07;;;5.85;;
26530;SDS011;14201;43.188;24.160;2023-03-01T09:41:34;8.68;;;5.65;;
26530;SDS011;14201;43.188;24.160;2023-03-01T09:43:59;7.05;;;5.28;;
26530;SDS011;14201;43.188;24.160;2023-03-01T09:46:31;7.18;;;5.50;;
26530;SDS011;14201;43.188;24.160;2023-03-01T09:49:04;7.50;;;5.70;;
26530;SDS011;14201;43.188;24.160;2023-03-01T09:54:25;6.38;;;4.57;;
26530;SDS011;14201;43.188;24.160;2023-03-01T09:59:26;8.30;;;5.75;;
26530;SDS011;14201;43.188;24.160;2023-03-01T10:05:12;8.82;;;6.15;;
26530;SDS011;14201;43.188;24.160;2023-03-01T10:08:26;8.15;;;6.10;;
26530;SDS011;14201;43.188;24.160;2023-03-01T10:11:03;9.38;;;6.63;;
26530;SDS011;14201;43.188;24.160;2023-03-01T10:16:34;10.45;;;6.80;;
26530;SDS011;14201;43.188;24.160;2023-03-01T10:19:03;16.35;;;7.93;;
26530;SDS011;14201;43.188;24.160;2023-03-01T10:21:31;9.07;;;6.93;;
26530;SDS011;14201;43.188;24.160;2023-03-01T10:24:12;13.60;;;7.80;;
26530;SDS011;14201;43.188;24.160;2023-03-01T10:29:09;11.27;;;8.07;;
26530;SDS011;14201;43.188;24.160;2023-03-01T10:31:38;11.23;;;8.43;;
26530;SDS011;14201;43.188;24.160;2023-03-01T10:34:25;11.90;;;8.07;;
26530;SDS011;14201;43.188;24.160;2023-03-01T10:36:55;13.68;;;8.10;;
26530;SDS011;14201;43.188;24.160;2023-03-01T10:39:24;13.93;;;9.00;;
26530;SDS011;14201;43.188;24.160;2023-03-01T10:42:04;13.48;;;8.85;;
26530;SDS011;14201;43.188;24.160;2023-03-01T10:44:38;14.60;;;10.23;;
26530;SDS011;14201;43.188;24.160;2023-03-01T10:49:52;14.48;;;9.80;;
26530;SDS011;14201;43.188;24.160;2023-03-01T10:52:24;14.52;;;9.35;;
26530;SDS011;14201;43.188;24.160;2023-03-01T10:55:39;19.00;;;10.93;;
26530;SDS011;14201;43.188;24.160;2023-03-01T10:57:42;15.82;;;10.18;;
26530;SDS011;14201;43.188;24.160;2023-03-01T11:00:18;16.27;;;10.55;;
26530;SDS011;14201;43.188;24.160;2023-03-01T11:02:48;17.80;;;11.90;;
26530;SDS011;14201;43.188;24.160;2023-03-01T11:07:58;18.02;;;11.00;;
26530;SDS011;14201;43.188;24.160;2023-03-01T11:10:26;10.07;;;6.82;;
26530;SDS011;14201;43.188;24.160;2023-03-01T11:15:32;14.88;;;9.77;;
26530;SDS011;14201;43.188;24.160;2023-03-01T11:17:58;15.95;;;10.63;;
26530;SDS011;14201;43.188;24.160;2023-03-01T11:20:25;15.35;;;10.75;;
26530;SDS011;14201;43.188;24.160;2023-03-01T11:23:10;16.73;;;11.13;;
26530;SDS011;14201;43.188;24.160;2023-03-01T11:25:44;15.32;;;10.38;;
26530;SDS011;14201;43.188;24.160;2023-03-01T11:28:15;14.98;;;9.77;;
26530;SDS011;14201;43.188;24.160;2023-03-01T11:33:46;12.00;;;8.55;;
26530;SDS011;14201;43.188;24.160;2023-03-01T11:36:35;12.68;;;8.85;;
26530;SDS011;14201;43.188;24.160;2023-03-01T11:42:11;14.25;;;10.00;;
26530;SDS011;14201;43.188;24.160;2023-03-01T11:44:41;15.55;;;9.55;;
26530;SDS011;14201;43.188;24.160;2023-03-01T11:58:14;14.13;;;9.77;;
26530;SDS011;14201;43.188;24.160;2023-03-01T12:17:38;18.70;;;12.57;;
26530;SDS011;14201;43.188;24.160;2023-03-01T12:20:22;21.40;;;13.82;;
26530;SDS011;14201;43.188;24.160;2023-03-01T13:33:48;23.33;;;14.32;;
26530;SDS011;14201;43.188;24.160;2023-03-01T13:41:58;22.65;;;13.65;;
26530;SDS011;14201;43.188;24.160;2023-03-01T13:44:37;23.33;;;14.68;;
26530;SDS011;14201;43.188;24.160;2023-03-01T13:47:14;25.23;;;14.55;;
26530;SDS011;14201;43.188;24.160;2023-03-01T13:55:06;20.45;;;13.82;;
26530;SDS011;14201;43.188;24.160;2023-03-01T13:57:39;23.33;;;14.43;;
26530;SDS011;14201;43.188;24.160;2023-03-01T14:00:30;21.42;;;14.18;;
26530;SDS011;14201;43.188;24.160;2023-03-01T14:03:05;24.05;;;14.98;;
26530;SDS011;14201;43.188;24.160;2023-03-01T14:05:40;22.88;;;13.52;;
26530;SDS011;14201;43.188;24.160;2023-03-01T14:08:20;20.75;;;12.93;;
26530;SDS011;14201;43.188;24.160;2023-03-01T14:16:35;23.40;;;14.23;;
26530;SDS011;14201;43.188;24.160;2023-03-01T14:21:42;24.45;;;14.23;;
26530;SDS011;14201;43.188;24.160;2023-03-01T14:24:16;21.63;;;14.25;;
26530;SDS011;14201;43.188;24.160;2023-03-01T14:26:45;23.55;;;14.70;;
26530;SDS011;14201;43.188;24.160;2023-03-01T14:29:53;23.00;;;13.65;;
26530;SDS011;14201;43.188;24.160;2023-03-01T14:34:47;22.48;;;15.05;;
26530;SDS011;14201;43.188;24.160;2023-03-01T14:37:18;18.83;;;12.63;;
26530;SDS011;14201;43.188;24.160;2023-03-01T14:39:44;23.15;;;14.23;;
26530;SDS011;14201;43.188;24.160;2023-03-01T14:42:11;26.90;;;15.30;;
26530;SDS011;14201;43.188;24.160;2023-03-01T14:44:40;22.83;;;14.77;;
26530;SDS011;14201;43.188;24.160;2023-03-01T14:47:12;23.23;;;14.87;;
26530;SDS011;14201;43.188;24.160;2023-03-01T14:49:44;20.50;;;14.10;;
26530;SDS011;14201;43.188;24.160;2023-03-01T14:52:20;22.23;;;13.98;;
26530;SDS011;14201;43.188;24.160;2023-03-01T16:09:00;27.02;;;15.18;;
26530;SDS011;14201;43.188;24.160;2023-03-01T16:11:27;22.63;;;14.98;;
26530;SDS011;14201;43.188;24.160;2023-03-01T16:13:53;23.98;;;15.38;;
26530;SDS011;14201;43.188;24.160;2023-03-01T16:16:18;23.45;;;13.45;;
26530;SDS011;14201;43.188;24.160;2023-03-01T16:18:45;22.52;;;14.27;;
26530;SDS011;14201;43.188;24.160;2023-03-01T16:21:13;23.48;;;15.45;;
26530;SDS011;14201;43.188;24.160;2023-03-01T16:23:46;27.13;;;16.38;;
26530;SDS011;14201;43.188;24.160;2023-03-01T16:26:12;27.23;;;14.73;;
26530;SDS011;14201;43.188;24.160;2023-03-01T16:28:41;23.02;;;15.57;;
26530;SDS011;14201;43.188;24.160;2023-03-01T16:31:07;25.05;;;15.38;;
26530;SDS011;14201;43.188;24.160;2023-03-01T16:33:34;26.67;;;15.52;;
26530;SDS011;14201;43.188;24.160;2023-03-01T16:36:06;25.05;;;16.48;;
26530;SDS011;14201;43.188;24.160;2023-03-01T16:38:33;26.42;;;16.23;;
26530;SDS011;14201;43.188;24.160;2023-03-01T16:40:59;30.00;;;15.80;;
26530;SDS011;14201;43.188;24.160;2023-03-01T16:43:25;25.63;;;15.50;;
26530;SDS011;14201;43.188;24.160;2023-03-01T16:45:51;19.92;;;13.85;;
26530;SDS011;14201;43.188;24.160;2023-03-01T16:48:17;21.20;;;14.18;;
26530;SDS011;14201;43.188;24.160;2023-03-01T16:50:43;25.90;;;17.02;;
26530;SDS011;14201;43.188;24.160;2023-03-01T16:53:08;28.75;;;16.95;;
26530;SDS011;14201;43.188;24.160;2023-03-01T16:55:35;24.42;;;16.23;;
26530;SDS011;14201;43.188;24.160;2023-03-01T16:58:01;24.88;;;15.40;;
26530;SDS011;14201;43.188;24.160;2023-03-01T17:00:27;22.67;;;14.52;;
26530;SDS011;14201;43.188;24.160;2023-03-01T17:02:53;22.02;;;13.65;;
26530;SDS011;14201;43.188;24.160;2023-03-01T17:05:19;19.20;;;12.23;;
26530;SDS011;14201;43.188;24.160;2023-03-01T17:07:47;16.98;;;10.68;;
26530;SDS011;14201;43.188;24.160;2023-03-01T17:10:12;18.70;;;11.18;;
26530;SDS011;14201;43.188;24.160;2023-03-01T17:12:38;19.27;;;10.98;;
26530;SDS011;14201;43.188;24.160;2023-03-01T17:15:04;19.60;;;10.73;;
26530;SDS011;14201;43.188;24.160;2023-03-01T17:17:31;15.88;;;9.52;;
26530;SDS011;14201;43.188;24.160;2023-03-01T17:19:57;17.85;;;10.52;;
26530;SDS011;14201;43.188;24.160;2023-03-01T17:22:22;21.50;;;11.38;;
26530;SDS011;14201;43.188;24.160;2023-03-01T17:24:48;20.45;;;11.10;;
26530;SDS011;14201;43.188;24.160;2023-03-01T17:27:14;22.77;;;12.75;;
26530;SDS011;14201;43.188;24.160;2023-03-01T17:29:40;20.42;;;11.50;;
26530;SDS011;14201;43.188;24.160;2023-03-01T17:32:06;21.10;;;11.88;;
26530;SDS011;14201;43.188;24.160;2023-03-01T17:34:32;24.10;;;12.32;;
26530;SDS011;14201;43.188;24.160;2023-03-01T17:36:58;24.38;;;13.02;;
26530;SDS011;14201;43.188;24.160;2023-03-01T17:39:24;23.40;;;12.77;;
26530;SDS011;14201;43.188;24.160;2023-03-01T17:41:55;23.40;;;13.27;;
26530;SDS011;14201;43.188;24.160;2023-03-01T17:44:21;25.92;;;13.00;;
26530;SDS011;14201;43.188;24.160;2023-03-01T17:46:47;25.30;;;14.38;;
26530;SDS011;14201;43.188;24.160;2023-03-01T17:49:13;24.95;;;14.77;;
26530;SDS011;14201;43.188;24.160;2023-03-01T17:54:04;31.50;;;15.70;;
26530;SDS011;14201;43.188;24.160;2023-03-01T17:56:30;25.35;;;14.80;;
26530;SDS011;14201;43.188;24.160;2023-03-01T17:58:58;30.92;;;16.85;;
26530;SDS011;14201;43.188;24.160;2023-03-01T18:01:24;33.80;;;17.30;;
26530;SDS011;14201;43.188;24.160;2023-03-01T18:03:50;36.63;;;18.27;;
26530;SDS011;14201;43.188;24.160;2023-03-01T18:06:18;33.17;;;18.30;;
26530;SDS011;14201;43.188;24.160;2023-03-01T18:08:45;36.95;;;18.65;;
26530;SDS011;14201;43.188;24.160;2023-03-01T18:18:34;30.47;;;16.83;;
26530;SDS011;14201;43.188;24.160;2023-03-01T18:21:01;44.33;;;25.83;;
26530;SDS011;14201;43.188;24.160;2023-03-01T18:23:28;51.22;;;28.83;;
26530;SDS011;14201;43.188;24.160;2023-03-01T18:25:58;53.55;;;30.70;;
26530;SDS011;14201;43.188;24.160;2023-03-01T18:28:32;42.78;;;24.33;;
26530;SDS011;14201;43.188;24.160;2023-03-01T18:30:58;46.60;;;23.52;;
26530;SDS011;14201;43.188;24.160;2023-03-01T18:33:25;46.22;;;23.02;;
26530;SDS011;14201;43.188;24.160;2023-03-01T18:35:51;41.88;;;22.95;;
26530;SDS011;14201;43.188;24.160;2023-03-01T18:38:18;40.78;;;23.48;;
26530;SDS011;14201;43.188;24.160;2023-03-01T18:40:44;40.45;;;23.25;;
26530;SDS011;14201;43.188;24.160;2023-03-01T18:43:10;36.88;;;22.50;;
26530;SDS011;14201;43.188;24.160;2023-03-01T18:45:36;44.08;;;24.38;;
26530;SDS011;14201;43.188;24.160;2023-03-01T18:48:01;42.25;;;23.70;;
26530;SDS011;14201;43.188;24.160;2023-03-01T18:50:27;48.38;;;26.15;;
26530;SDS011;14201;43.188;24.160;2023-03-01T18:52:53;44.15;;;26.60;;
26530;SDS011;14201;43.188;24.160;2023-03-01T18:55:19;47.17;;;26.17;;
26530;SDS011;14201;43.188;24.160;2023-03-01T18:57:45;47.05;;;25.92;;
26530;SDS011;14201;43.188;24.160;2023-03-01T19:00:11;43.78;;;27.10;;
26530;SDS011;14201;43.188;24.160;2023-03-01T19:02:37;49.80;;;27.00;;
26530;SDS011;14201;43.188;24.160;2023-03-01T19:05:03;46.45;;;27.13;;
26530;SDS011;14201;43.188;24.160;2023-03-01T19:07:29;51.47;;;26.73;;
26530;SDS011;14201;43.188;24.160;2023-03-01T19:09:54;48.58;;;26.52;;
26530;SDS011;14201;43.188;24.160;2023-03-01T19:12:20;43.08;;;25.33;;
26530;SDS011;14201;43.188;24.160;2023-03-01T19:14:46;44.90;;;26.23;;
26530;SDS011;14201;43.188;24.160;2023-03-01T19:17:11;45.92;;;27.05;;
26530;SDS011;14201;43.188;24.160;2023-03-01T19:19:37;47.67;;;27.48;;
26530;SDS011;14201;43.188;24.160;2023-03-01T19:22:03;46.60;;;26.05;;
26530;SDS011;14201;43.188;24.160;2023-03-01T19:24:30;43.50;;;26.05;;
26530;SDS011;14201;43.188;24.160;2023-03-01T19:26:56;50.42;;;28.90;;
26530;SDS011;14201;43.188;24.160;2023-03-01T19:29:22;49.10;;;27.67;;
26530;SDS011;14201;43.188;24.160;2023-03-01T19:31:48;45.92;;;27.63;;
26530;SDS011;14201;43.188;24.160;2023-03-01T19:34:13;48.75;;;29.23;;
26530;SDS011;14201;43.188;24.160;2023-03-01T19:36:40;50.30;;;30.33;;
26530;SDS011;14201;43.188;24.160;2023-03-01T19:41:33;43.78;;;26.17;;
26530;SDS011;14201;43.188;24.160;2023-03-01T19:43:59;42.75;;;26.65;;
26530;SDS011;14201;43.188;24.160;2023-03-01T19:46:29;43.30;;;25.13;;
26530;SDS011;14201;43.188;24.160;2023-03-01T20:03:38;42.58;;;25.30;;
26530;SDS011;14201;43.188;24.160;2023-03-01T20:20:48;46.80;;;26.80;;
26530;SDS011;14201;43.188;24.160;2023-03-01T20:23:15;45.05;;;25.52;;
26530;SDS011;14201;43.188;24.160;2023-03-01T20:25:42;46.55;;;26.75;;
26530;SDS011;14201;43.188;24.160;2023-03-01T20:28:08;43.45;;;25.58;;
26530;SDS011;14201;43.188;24.160;2023-03-01T20:30:34;44.78;;;25.27;;
26530;SDS011;14201;43.188;24.160;2023-03-01T20:33:01;39.42;;;23.92;;
26530;SDS011;14201;43.188;24.160;2023-03-01T20:35:27;45.35;;;26.15;;
26530;SDS011;14201;43.188;24.160;2023-03-01T20:37:57;43.47;;;24.92;;
26530;SDS011;14201;43.188;24.160;2023-03-01T20:40:23;41.30;;;25.35;;
26530;SDS011;14201;43.188;24.160;2023-03-01T20:42:55;39.75;;;24.48;;
26530;SDS011;14201;43.188;24.160;2023-03-01T20:45:22;45.03;;;24.37;;
26530;SDS011;14201;43.188;24.160;2023-03-01T20:47:49;45.80;;;24.75;;
26530;SDS011;14201;43.188;24.160;2023-03-01T20:50:16;42.17;;;24.90;;
26530;SDS011;14201;43.188;24.160;2023-03-01T20:52:43;43.95;;;25.00;;
26530;SDS011;14201;43.188;24.160;2023-03-01T20:55:09;43.10;;;25.25;;
26530;SDS011;14201;43.188;24.160;2023-03-01T20:57:35;41.63;;;24.55;;
26530;SDS011;14201;43.188;24.160;2023-03-01T21:00:02;50.15;;;25.50;;
26530;SDS011;14201;43.188;24.160;2023-03-01T21:02:29;43.25;;;24.85;;
26530;SDS011;14201;43.188;24.160;2023-03-01T21:04:55;45.40;;;25.60;;
26530;SDS011;14201;43.188;24.160;2023-03-01T21:07:20;42.05;;;25.25;;
26530;SDS011;14201;43.188;24.160;2023-03-01T21:09:46;47.35;;;25.13;;
26530;SDS011;14201;43.188;24.160;2023-03-01T21:12:12;41.05;;;23.45;;
26530;SDS011;14201;43.188;24.160;2023-03-01T21:14:38;43.08;;;25.55;;
26530;SDS011;14201;43.188;24.160;2023-03-01T21:17:13;44.22;;;25.75;;
26530;SDS011;14201;43.188;24.160;2023-03-01T21:19:41;43.75;;;24.13;;
26530;SDS011;14201;43.188;24.160;2023-03-01T21:22:11;43.92;;;25.60;;
26530;SDS011;14201;43.188;24.160;2023-03-01T21:27:04;41.75;;;26.15;;
26530;SDS011;14201;43.188;24.160;2023-03-01T21:29:35;45.83;;;24.67;;
26530;SDS011;14201;43.188;24.160;2023-03-01T21:32:02;42.47;;;24.02;;
26530;SDS011;14201;43.188;24.160;2023-03-01T21:34:28;40.03;;;24.65;;
26530;SDS011;14201;43.188;24.160;2023-03-01T21:36:54;40.72;;;23.35;;